sensor_id;sensor_type;location;lat;lon;timestamp;pressure;altitude;pressure_sealevel;temperature;humidity
27613;BME280;15036;48.094;-1.690;2022-07-23T00:00:39;101501.97;;;21.46;53.87
27613;BME280;15036;48.094;-1.690;2022-07-23T00:03:05;101505.47;;;21.25;54.20
27613;BME280;15036;48.094;-1.690;2022-07-23T00:05:30;101504.41;;;21.76;53.14
27613;BME280;15036;48.094;-1.690;2022-07-23T00:07:56;101495.91;;;21.49;53.42
27613;BME280;15036;48.094;-1.690;2022-07-23T00:10:21;101505.19;;;20.65;55.99
27613;BME280;15036;48.094;-1.690;2022-07-23T00:12:47;101502.63;;;20.64;56.36
27613;BME280;15036;48.094;-1.690;2022-07-23T00:15:12;101504.97;;;20.55;56.35
27613;BME280;15036;48.094;-1.690;2022-07-23T00:17:37;101502.22;;;20.72;56.02
27613;BME280;15036;48.094;-1.690;2022-07-23T00:20:03;101506.00;;;21.55;53.45
27613;BME280;15036;48.094;-1.690;2022-07-23T00:22:29;101501.00;;;21.08;54.68
27613;BME280;15036;48.094;-1.690;2022-07-23T00:24:57;101503.88;;;20.56;56.01
27613;BME280;15036;48.094;-1.690;2022-07-23T00:27:23;101495.59;;;20.73;55.94
27613;BME280;15036;48.094;-1.690;2022-07-23T00:29:49;101501.28;;;20.95;55.45
27613;BME280;15036;48.094;-1.690;2022-07-23T00:32:14;101496.66;;;20.84;55.96
27613;BME280;15036;48.094;-1.690;2022-07-23T00:34:40;101496.41;;;20.85;55.51
27613;BME280;15036;48.094;-1.690;2022-07-23T00:37:05;101486.44;;;20.72;55.93
27613;BME280;15036;48.094;-1.690;2022-07-23T00:39:31;101486.19;;;20.34;57.03
27613;BME280;15036;48.094;-1.690;2022-07-23T00:41:56;101492.19;;;20.83;55.59
27613;BME280;15036;48.094;-1.690;2022-07-23T00:44:24;101486.38;;;21.12;55.13
27613;BME280;15036;48.094;-1.690;2022-07-23T00:46:52;101482.66;;;20.79;55.64
27613;BME280;15036;48.094;-1.690;2022-07-23T00:49:20;101476.22;;;20.90;55.46
27613;BME280;15036;48.094;-1.690;2022-07-23T00:51:46;101476.38;;;20.83;55.39
27613;BME280;15036;48.094;-1.690;2022-07-23T00:54:11;101477.31;;;21.17;54.60
27613;BME280;15036;48.094;-1.690;2022-07-23T00:56:37;101493.56;;;20.68;55.74
27613;BME280;15036;48.094;-1.690;2022-07-23T00:59:02;101486.31;;;20.39;56.46
27613;BME280;15036;48.094;-1.690;2022-07-23T01:01:28;101490.97;;;20.50;56.05
27613;BME280;15036;48.094;-1.690;2022-07-23T01:03:53;101487.00;;;20.58;55.88
27613;BME280;15036;48.094;-1.690;2022-07-23T01:06:19;101488.78;;;20.01;57.49
27613;BME280;15036;48.094;-1.690;2022-07-23T01:08:44;101482.78;;;20.84;55.48
27613;BME280;15036;48.094;-1.690;2022-07-23T01:11:11;101477.63;;;20.47;56.21
27613;BME280;15036;48.094;-1.690;2022-07-23T01:13:42;101479.97;;;20.16;57.22
27613;BME280;15036;48.094;-1.690;2022-07-23T01:16:07;101479.50;;;19.96;57.84
27613;BME280;15036;48.094;-1.690;2022-07-23T01:18:33;101480.25;;;19.79;58.26
27613;BME280;15036;48.094;-1.690;2022-07-23T01:20:58;101470.31;;;20.07;57.35
27613;BME280;15036;48.094;-1.690;2022-07-23T01:23:23;101464.91;;;20.23;57.48
27613;BME280;15036;48.094;-1.690;2022-07-23T01:25:52;101465.53;;;19.79;58.57
27613;BME280;15036;48.094;-1.690;2022-07-23T01:28:17;101462.47;;;20.15;57.33
27613;BME280;15036;48.094;-1.690;2022-07-23T01:30:43;101465.41;;;20.20;57.19
27613;BME280;15036;48.094;-1.690;2022-07-23T01:33:08;101466.00;;;19.99;57.64
27613;BME280;15036;48.094;-1.690;2022-07-23T01:35:33;101474.81;;;19.38;59.72
27613;BME280;15036;48.094;-1.690;2022-07-23T01:37:59;101467.94;;;19.87;58.33
27613;BME280;15036;48.094;-1.690;2022-07-23T01:40:24;101462.47;;;20.15;57.22
27613;BME280;15036;48.094;-1.690;2022-07-23T01:42:50;101459.44;;;20.40;56.27
27613;BME280;15036;48.094;-1.690;2022-07-23T01:45:15;101460.56;;;20.84;55.23
27613;BME280;15036;48.094;-1.690;2022-07-23T01:47:40;101456.41;;;20.69;55.73
27613;BME280;15036;48.094;-1.690;2022-07-23T01:50:06;101449.28;;;20.73;55.51
27613;BME280;15036;48.094;-1.690;2022-07-23T01:52:32;101450.63;;;19.80;58.16
27613;BME280;15036;48.094;-1.690;2022-07-23T01:54:57;101446.34;;;20.01;57.54
27613;BME280;15036;48.094;-1.690;2022-07-23T01:57:22;101450.25;;;19.88;57.84
27613;BME280;15036;48.094;-1.690;2022-07-23T01:59:48;101454.16;;;20.27;56.72
27613;BME280;15036;48.094;-1.690;2022-07-23T02:02:13;101451.16;;;20.05;57.45
27613;BME280;15036;48.094;-1.690;2022-07-23T02:04:39;101458.06;;;19.91;57.90
27613;BME280;15036;48.094;-1.690;2022-07-23T02:07:04;101452.66;;;19.50;58.94
27613;BME280;15036;48.094;-1.690;2022-07-23T02:09:30;101447.88;;;19.04;60.58
27613;BME280;15036;48.094;-1.690;2022-07-23T02:11:55;101454.78;;;19.25;60.60
27613;BME280;15036;48.094;-1.690;2022-07-23T02:14:21;101450.25;;;19.88;58.48
27613;BME280;15036;48.094;-1.690;2022-07-23T02:16:46;101451.88;;;20.01;58.08
27613;BME280;15036;48.094;-1.690;2022-07-23T02:19:12;101452.66;;;19.73;58.93
27613;BME280;15036;48.094;-1.690;2022-07-23T02:21:37;101443.94;;;20.04;57.73
27613;BME280;15036;48.094;-1.690;2022-07-23T02:24:03;101461.81;;;19.85;58.34
27613;BME280;15036;48.094;-1.690;2022-07-23T02:26:29;101471.00;;;19.51;59.66
27613;BME280;15036;48.094;-1.690;2022-07-23T02:28:54;101472.97;;;19.21;60.43
27613;BME280;15036;48.094;-1.690;2022-07-23T02:31:20;101473.25;;;19.77;58.91
27613;BME280;15036;48.094;-1.690;2022-07-23T02:33:45;101482.06;;;19.51;59.20
27613;BME280;15036;48.094;-1.690;2022-07-23T02:36:11;101475.38;;;19.29;60.22
27613;BME280;15036;48.094;-1.690;2022-07-23T02:38:36;101470.06;;;19.16;59.92
27613;BME280;15036;48.094;-1.690;2022-07-23T02:41:02;101479.41;;;19.33;59.71
27613;BME280;15036;48.094;-1.690;2022-07-23T02:43:27;101476.38;;;19.92;58.33
27613;BME280;15036;48.094;-1.690;2022-07-23T02:45:53;101476.16;;;19.59;58.88
27613;BME280;15036;48.094;-1.690;2022-07-23T02:48:18;101477.47;;;19.91;58.32
27613;BME280;15036;48.094;-1.690;2022-07-23T02:50:44;101481.81;;;19.64;59.04
27613;BME280;15036;48.094;-1.690;2022-07-23T02:53:09;101483.03;;;19.03;61.11
27613;BME280;15036;48.094;-1.690;2022-07-23T02:55:34;101481.88;;;19.23;59.87
27613;BME280;15036;48.094;-1.690;2022-07-23T02:58:00;101476.88;;;19.43;60.02
27613;BME280;15036;48.094;-1.690;2022-07-23T03:00:25;101484.34;;;19.54;59.36
27613;BME280;15036;48.094;-1.690;2022-07-23T03:02:50;101479.84;;;19.99;58.01
27613;BME280;15036;48.094;-1.690;2022-07-23T03:05:16;101476.50;;;19.85;58.41
27613;BME280;15036;48.094;-1.690;2022-07-23T03:07:41;101476.03;;;19.54;59.46
27613;BME280;15036;48.094;-1.690;2022-07-23T03:10:07;101470.94;;;20.20;57.53
27613;BME280;15036;48.094;-1.690;2022-07-23T03:12:33;101474.31;;;20.22;57.44
27613;BME280;15036;48.094;-1.690;2022-07-23T03:14:58;101473.75;;;19.51;59.34
27613;BME280;15036;48.094;-1.690;2022-07-23T03:17:23;101477.72;;;19.66;59.01
27613;BME280;15036;48.094;-1.690;2022-07-23T03:19:49;101473.50;;;19.64;58.98
27613;BME280;15036;48.094;-1.690;2022-07-23T03:22:14;101473.09;;;20.18;57.09
27613;BME280;15036;48.094;-1.690;2022-07-23T03:24:40;101481.94;;;19.80;58.34
27613;BME280;15036;48.094;-1.690;2022-07-23T03:27:28;101479.03;;;19.75;58.42
27613;BME280;15036;48.094;-1.690;2022-07-23T03:29:54;101478.56;;;19.02;60.23
27613;BME280;15036;48.094;-1.690;2022-07-23T03:32:21;101468.22;;;19.51;59.30
27613;BME280;15036;48.094;-1.690;2022-07-23T03:34:47;101478.91;;;19.36;59.76
27613;BME280;15036;48.094;-1.690;2022-07-23T03:37:12;101462.41;;;18.88;61.44
27613;BME280;15036;48.094;-1.690;2022-07-23T03:39:38;101468.63;;;19.13;59.93
27613;BME280;15036;48.094;-1.690;2022-07-23T03:42:03;101463.81;;;19.32;60.22
27613;BME280;15036;48.094;-1.690;2022-07-23T03:44:28;101463.41;;;18.93;61.47
27613;BME280;15036;48.094;-1.690;2022-07-23T03:46:54;101470.13;;;19.62;59.27
27613;BME280;15036;48.094;-1.690;2022-07-23T03:49:20;101462.78;;;19.79;58.34
27613;BME280;15036;48.094;-1.690;2022-07-23T03:51:45;101468.66;;;18.83;61.53
27613;BME280;15036;48.094;-1.690;2022-07-23T03:54:10;101472.53;;;18.94;61.42
27613;BME280;15036;48.094;-1.690;2022-07-23T03:56:36;101473.88;;;19.44;59.81
27613;BME280;15036;48.094;-1.690;2022-07-23T03:59:02;101465.25;;;19.23;60.54
27613;BME280;15036;48.094;-1.690;2022-07-23T04:01:27;101465.59;;;19.15;61.04
27613;BME280;15036;48.094;-1.690;2022-07-23T04:03:53;101473.78;;;19.10;60.89
27613;BME280;15036;48.094;-1.690;2022-07-23T04:06:18;101469.34;;;18.67;61.74
27613;BME280;15036;48.094;-1.690;2022-07-23T04:08:44;101477.66;;;18.79;62.18
27613;BME280;15036;48.094;-1.690;2022-07-23T04:11:09;101478.88;;;18.53;62.81
27613;BME280;15036;48.094;-1.690;2022-07-23T04:13:35;101484.72;;;18.27;63.70
27613;BME280;15036;48.094;-1.690;2022-07-23T04:16:00;101489.03;;;19.00;61.59
27613;BME280;15036;48.094;-1.690;2022-07-23T04:18:25;101496.63;;;18.93;61.06
27613;BME280;15036;48.094;-1.690;2022-07-23T04:20:51;101502.59;;;18.90;61.57
27613;BME280;15036;48.094;-1.690;2022-07-23T04:23:17;101497.44;;;18.64;62.25
27613;BME280;15036;48.094;-1.690;2022-07-23T04:25:43;101493.00;;;17.91;64.50
27613;BME280;15036;48.094;-1.690;2022-07-23T04:28:09;101496.94;;;18.38;62.70
27613;BME280;15036;48.094;-1.690;2022-07-23T04:30:34;101502.22;;;18.03;63.68
27613;BME280;15036;48.094;-1.690;2022-07-23T04:32:59;101492.19;;;18.74;61.91
27613;BME280;15036;48.094;-1.690;2022-07-23T04:35:25;101489.16;;;19.05;61.32
27613;BME280;15036;48.094;-1.690;2022-07-23T04:37:50;101488.72;;;18.49;62.43
27613;BME280;15036;48.094;-1.690;2022-07-23T04:40:16;101491.59;;;18.72;62.10
27613;BME280;15036;48.094;-1.690;2022-07-23T04:42:41;101484.88;;;18.50;62.61
27613;BME280;15036;48.094;-1.690;2022-07-23T04:45:07;101489.72;;;18.55;62.51
27613;BME280;15036;48.094;-1.690;2022-07-23T04:47:32;101482.16;;;18.91;60.70
27613;BME280;15036;48.094;-1.690;2022-07-23T04:49:58;101495.84;;;18.86;61.44
27613;BME280;15036;48.094;-1.690;2022-07-23T04:52:23;101497.72;;;18.45;62.93
27613;BME280;15036;48.094;-1.690;2022-07-23T04:54:49;101496.31;;;19.25;60.58
27613;BME280;15036;48.094;-1.690;2022-07-23T04:57:15;101496.94;;;18.56;62.47
27613;BME280;15036;48.094;-1.690;2022-07-23T04:59:40;101498.94;;;18.78;61.97
27613;BME280;15036;48.094;-1.690;2022-07-23T05:02:06;101493.19;;;19.21;60.39
27613;BME280;15036;48.094;-1.690;2022-07-23T05:04:31;101492.66;;;19.42;59.92
27613;BME280;15036;48.094;-1.690;2022-07-23T05:06:57;101490.28;;;19.16;60.33
27613;BME280;15036;48.094;-1.690;2022-07-23T05:09:23;101485.66;;;18.98;60.87
27613;BME280;15036;48.094;-1.690;2022-07-23T05:11:48;101485.69;;;19.10;60.41
27613;BME280;15036;48.094;-1.690;2022-07-23T05:14:14;101497.59;;;19.63;59.02
27613;BME280;15036;48.094;-1.690;2022-07-23T05:16:39;101499.59;;;19.33;59.59
27613;BME280;15036;48.094;-1.690;2022-07-23T05:19:05;101504.16;;;18.86;61.47
27613;BME280;15036;48.094;-1.690;2022-07-23T05:21:30;101504.63;;;19.25;59.83
27613;BME280;15036;48.094;-1.690;2022-07-23T05:23:55;101504.41;;;18.85;61.27
27613;BME280;15036;48.094;-1.690;2022-07-23T05:26:21;101507.94;;;18.74;62.00
27613;BME280;15036;48.094;-1.690;2022-07-23T05:28:46;101511.28;;;18.94;61.26
27613;BME280;15036;48.094;-1.690;2022-07-23T05:31:12;101513.88;;;18.77;61.87
27613;BME280;15036;48.094;-1.690;2022-07-23T05:33:37;101510.22;;;18.65;62.21
27613;BME280;15036;48.094;-1.690;2022-07-23T05:36:03;101514.56;;;19.44;59.94
27613;BME280;15036;48.094;-1.690;2022-07-23T05:38:30;101517.47;;;19.49;59.90
27613;BME280;15036;48.094;-1.690;2022-07-23T05:40:56;101518.53;;;19.59;59.25
27613;BME280;15036;48.094;-1.690;2022-07-23T05:43:22;101516.25;;;20.03;57.63
27613;BME280;15036;48.094;-1.690;2022-07-23T05:45:47;101528.59;;;19.31;60.29
27613;BME280;15036;48.094;-1.690;2022-07-23T05:48:12;101534.31;;;19.47;59.32
27613;BME280;15036;48.094;-1.690;2022-07-23T05:50:38;101536.53;;;19.68;58.71
27613;BME280;15036;48.094;-1.690;2022-07-23T05:53:03;101528.53;;;19.08;60.81
27613;BME280;15036;48.094;-1.690;2022-07-23T05:55:29;101535.06;;;20.01;58.10
27613;BME280;15036;48.094;-1.690;2022-07-23T05:57:57;101535.78;;;19.96;58.46
27613;BME280;15036;48.094;-1.690;2022-07-23T06:00:22;101534.19;;;19.54;58.96
27613;BME280;15036;48.094;-1.690;2022-07-23T06:02:48;101532.06;;;20.02;58.37
27613;BME280;15036;48.094;-1.690;2022-07-23T06:05:14;101535.31;;;19.53;59.98
27613;BME280;15036;48.094;-1.690;2022-07-23T06:07:39;101522.28;;;20.00;58.76
27613;BME280;15036;48.094;-1.690;2022-07-23T06:10:05;101529.41;;;20.19;58.21
27613;BME280;15036;48.094;-1.690;2022-07-23T06:12:31;101531.75;;;19.34;60.75
27613;BME280;15036;48.094;-1.690;2022-07-23T06:14:56;101535.38;;;20.50;57.72
27613;BME280;15036;48.094;-1.690;2022-07-23T06:17:21;101528.91;;;19.87;59.25
27613;BME280;15036;48.094;-1.690;2022-07-23T06:19:47;101530.25;;;20.70;57.10
27613;BME280;15036;48.094;-1.690;2022-07-23T06:22:12;101532.81;;;20.60;57.56
27613;BME280;15036;48.094;-1.690;2022-07-23T06:24:38;101536.13;;;20.34;58.36
27613;BME280;15036;48.094;-1.690;2022-07-23T06:27:04;101539.94;;;20.56;57.61
27613;BME280;15036;48.094;-1.690;2022-07-23T06:29:29;101546.28;;;20.68;57.15
27613;BME280;15036;48.094;-1.690;2022-07-23T06:31:55;101551.34;;;20.32;58.01
27613;BME280;15036;48.094;-1.690;2022-07-23T06:34:20;101562.91;;;19.94;60.05
27613;BME280;15036;48.094;-1.690;2022-07-23T06:36:45;101559.53;;;20.27;59.34
27613;BME280;15036;48.094;-1.690;2022-07-23T06:39:11;101567.34;;;19.72;60.61
27613;BME280;15036;48.094;-1.690;2022-07-23T06:41:36;101557.81;;;19.56;61.54
27613;BME280;15036;48.094;-1.690;2022-07-23T06:44:02;101560.28;;;20.62;58.61
27613;BME280;15036;48.094;-1.690;2022-07-23T06:46:27;101558.69;;;20.03;60.26
27613;BME280;15036;48.094;-1.690;2022-07-23T06:48:52;101554.22;;;20.77;58.61
27613;BME280;15036;48.094;-1.690;2022-07-23T06:51:18;101559.16;;;20.35;59.35
27613;BME280;15036;48.094;-1.690;2022-07-23T06:53:44;101553.13;;;20.49;59.75
27613;BME280;15036;48.094;-1.690;2022-07-23T06:56:09;101557.09;;;20.53;59.26
27613;BME280;15036;48.094;-1.690;2022-07-23T06:58:34;101553.97;;;20.50;60.00
27613;BME280;15036;48.094;-1.690;2022-07-23T07:01:00;101558.97;;;20.64;59.38
27613;BME280;15036;48.094;-1.690;2022-07-23T07:03:25;101554.41;;;20.58;59.51
27613;BME280;15036;48.094;-1.690;2022-07-23T07:05:50;101564.69;;;20.46;59.93
27613;BME280;15036;48.094;-1.690;2022-07-23T07:08:17;101565.03;;;21.01;58.97
27613;BME280;15036;48.094;-1.690;2022-07-23T07:10:42;101572.63;;;20.54;59.83
27613;BME280;15036;48.094;-1.690;2022-07-23T07:13:08;101571.88;;;21.10;58.16
27613;BME280;15036;48.094;-1.690;2022-07-23T07:15:33;101576.47;;;21.49;57.38
27613;BME280;15036;48.094;-1.690;2022-07-23T07:17:58;101575.09;;;21.35;57.43
27613;BME280;15036;48.094;-1.690;2022-07-23T07:20:24;101577.34;;;21.50;57.79
27613;BME280;15036;48.094;-1.690;2022-07-23T07:22:49;101579.56;;;21.81;56.65
27613;BME280;15036;48.094;-1.690;2022-07-23T07:25:15;101579.34;;;21.71;57.51
27613;BME280;15036;48.094;-1.690;2022-07-23T07:27:40;101583.69;;;21.17;59.02
27613;BME280;15036;48.094;-1.690;2022-07-23T07:30:07;101579.19;;;21.78;56.92
27613;BME280;15036;48.094;-1.690;2022-07-23T07:32:33;101580.91;;;22.12;56.60
27613;BME280;15036;48.094;-1.690;2022-07-23T07:34:59;101578.59;;;22.09;56.40
27613;BME280;15036;48.094;-1.690;2022-07-23T07:37:24;101582.41;;;22.19;56.32
27613;BME280;15036;48.094;-1.690;2022-07-23T07:39:49;101580.41;;;22.75;55.01
27613;BME280;15036;48.094;-1.690;2022-07-23T07:42:15;101578.22;;;22.38;55.43
27613;BME280;15036;48.094;-1.690;2022-07-23T07:44:40;101580.22;;;22.60;54.76
27613;BME280;15036;48.094;-1.690;2022-07-23T07:47:05;101580.91;;;23.15;53.50
27613;BME280;15036;48.094;-1.690;2022-07-23T07:49:31;101589.19;;;22.28;56.03
27613;BME280;15036;48.094;-1.690;2022-07-23T07:51:57;101588.16;;;22.94;54.12
27613;BME280;15036;48.094;-1.690;2022-07-23T07:54:22;101576.19;;;23.42;53.28
27613;BME280;15036;48.094;-1.690;2022-07-23T07:56:47;101587.31;;;23.15;53.38
27613;BME280;15036;48.094;-1.690;2022-07-23T07:59:13;101582.66;;;23.48;52.55
27613;BME280;15036;48.094;-1.690;2022-07-23T08:01:40;101580.03;;;23.99;51.24
27613;BME280;15036;48.094;-1.690;2022-07-23T08:04:05;101584.28;;;23.75;52.02
27613;BME280;15036;48.094;-1.690;2022-07-23T08:06:30;101586.09;;;23.06;53.25
27613;BME280;15036;48.094;-1.690;2022-07-23T08:08:56;101583.66;;;24.00;51.58
27613;BME280;15036;48.094;-1.690;2022-07-23T08:11:21;101592.22;;;24.25;50.91
27613;BME280;15036;48.094;-1.690;2022-07-23T08:13:47;101591.31;;;24.15;51.03
27613;BME280;15036;48.094;-1.690;2022-07-23T08:16:13;101584.38;;;24.64;49.91
27613;BME280;15036;48.094;-1.690;2022-07-23T08:18:38;101575.31;;;24.42;49.86
27613;BME280;15036;48.094;-1.690;2022-07-23T08:21:04;101586.50;;;24.05;50.83
27613;BME280;15036;48.094;-1.690;2022-07-23T08:23:31;101583.66;;;24.83;48.92
27613;BME280;15036;48.094;-1.690;2022-07-23T08:25:56;101585.06;;;24.96;48.83
27613;BME280;15036;48.094;-1.690;2022-07-23T08:28:22;101586.78;;;25.02;48.51
27613;BME280;15036;48.094;-1.690;2022-07-23T08:30:48;101586.22;;;25.00;48.29
27613;BME280;15036;48.094;-1.690;2022-07-23T08:33:15;101587.06;;;24.96;48.46
27613;BME280;15036;48.094;-1.690;2022-07-23T08:35:43;101578.44;;;25.07;48.08
27613;BME280;15036;48.094;-1.690;2022-07-23T08:38:11;101590.47;;;25.28;47.38
27613;BME280;15036;48.094;-1.690;2022-07-23T08:40:42;101596.06;;;25.28;47.27
27613;BME280;15036;48.094;-1.690;2022-07-23T08:43:10;101595.81;;;25.34;47.17
27613;BME280;15036;48.094;-1.690;2022-07-23T08:45:44;101595.38;;;24.34;49.10
27613;BME280;15036;48.094;-1.690;2022-07-23T08:48:15;101586.56;;;25.24;47.13
27613;BME280;15036;48.094;-1.690;2022-07-23T08:50:48;101589.63;;;24.60;48.00
27613;BME280;15036;48.094;-1.690;2022-07-23T08:53:16;101600.91;;;24.29;48.06
27613;BME280;15036;48.094;-1.690;2022-07-23T08:55:46;101599.47;;;24.68;47.46
27613;BME280;15036;48.094;-1.690;2022-07-23T08:58:13;101598.31;;;24.59;48.17
27613;BME280;15036;48.094;-1.690;2022-07-23T09:00:39;101598.84;;;25.08;46.36
27613;BME280;15036;48.094;-1.690;2022-07-23T09:03:04;101588.06;;;25.66;45.08
27613;BME280;15036;48.094;-1.690;2022-07-23T09:05:30;101595.06;;;25.84;44.63
27613;BME280;15036;48.094;-1.690;2022-07-23T09:08:16;101587.78;;;26.18;43.86
27613;BME280;15036;48.094;-1.690;2022-07-23T09:11:02;101589.41;;;26.44;43.25
27613;BME280;15036;48.094;-1.690;2022-07-23T09:13:38;101591.53;;;26.83;42.57
27613;BME280;15036;48.094;-1.690;2022-07-23T09:16:17;101587.03;;;26.92;42.67
27613;BME280;15036;48.094;-1.690;2022-07-23T09:18:47;101582.63;;;26.76;41.44
27613;BME280;15036;48.094;-1.690;2022-07-23T09:24:00;101578.25;;;26.29;41.69
27613;BME280;15036;48.094;-1.690;2022-07-23T09:26:27;101573.16;;;26.51;41.01
27613;BME280;15036;48.094;-1.690;2022-07-23T09:31:42;101585.72;;;26.64;40.54
27613;BME280;15036;48.094;-1.690;2022-07-23T09:34:13;101585.88;;;26.98;40.52
27613;BME280;15036;48.094;-1.690;2022-07-23T09:36:39;101584.59;;;27.29;39.97
27613;BME280;15036;48.094;-1.690;2022-07-23T09:39:06;101583.09;;;27.41;39.65
27613;BME280;15036;48.094;-1.690;2022-07-23T09:41:58;101586.22;;;27.40;39.82
27613;BME280;15036;48.094;-1.690;2022-07-23T09:44:41;101589.72;;;27.61;39.40
27613;BME280;15036;48.094;-1.690;2022-07-23T09:47:07;101585.13;;;26.67;40.27
27613;BME280;15036;48.094;-1.690;2022-07-23T09:49:32;101597.81;;;26.39;40.38
27613;BME280;15036;48.094;-1.690;2022-07-23T09:51:59;101585.75;;;27.18;39.29
27613;BME280;15036;48.094;-1.690;2022-07-23T09:56:53;101573.59;;;27.37;37.65
27613;BME280;15036;48.094;-1.690;2022-07-23T09:59:23;101578.78;;;27.15;37.73
27613;BME280;15036;48.094;-1.690;2022-07-23T10:01:50;101582.84;;;27.43;37.47
27613;BME280;15036;48.094;-1.690;2022-07-23T10:04:18;101581.94;;;27.48;37.33
27613;BME280;15036;48.094;-1.690;2022-07-23T10:06:43;101587.50;;;27.09;38.13
27613;BME280;15036;48.094;-1.690;2022-07-23T10:09:12;101576.97;;;26.81;38.89
27613;BME280;15036;48.094;-1.690;2022-07-23T10:11:38;101580.94;;;27.28;38.35
27613;BME280;15036;48.094;-1.690;2022-07-23T10:14:04;101568.66;;;27.63;37.52
27613;BME280;15036;48.094;-1.690;2022-07-23T10:16:31;101564.16;;;27.67;37.37
27613;BME280;15036;48.094;-1.690;2022-07-23T10:18:57;101568.03;;;28.05;36.70
27613;BME280;15036;48.094;-1.690;2022-07-23T10:21:54;101569.28;;;28.22;36.43
27613;BME280;15036;48.094;-1.690;2022-07-23T10:32:49;101560.38;;;28.63;36.09
27613;BME280;15036;48.094;-1.690;2022-07-23T10:38:27;101564.34;;;28.09;35.54
27613;BME280;15036;48.094;-1.690;2022-07-23T10:41:00;101564.78;;;27.88;35.76
27613;BME280;15036;48.094;-1.690;2022-07-23T10:43:26;101564.66;;;27.30;36.57
27613;BME280;15036;48.094;-1.690;2022-07-23T10:45:53;101554.59;;;28.02;35.40
27613;BME280;15036;48.094;-1.690;2022-07-23T10:48:26;101558.19;;;28.31;34.62
27613;BME280;15036;48.094;-1.690;2022-07-23T10:51:15;101557.53;;;28.68;34.50
27613;BME280;15036;48.094;-1.690;2022-07-23T10:53:59;101555.34;;;28.83;34.76
27613;BME280;15036;48.094;-1.690;2022-07-23T10:59:21;101549.97;;;28.87;34.16
27613;BME280;15036;48.094;-1.690;2022-07-23T11:01:47;101552.00;;;28.81;33.97
27613;BME280;15036;48.094;-1.690;2022-07-23T11:04:12;101547.16;;;28.87;34.35
27613;BME280;15036;48.094;-1.690;2022-07-23T11:09:48;101541.25;;;28.65;34.62
27613;BME280;15036;48.094;-1.690;2022-07-23T11:17:30;101548.81;;;28.41;34.60
27613;BME280;15036;48.094;-1.690;2022-07-23T11:25:03;101556.84;;;29.18;33.24
27613;BME280;15036;48.094;-1.690;2022-07-23T11:27:44;101547.22;;;29.43;32.39
27613;BME280;15036;48.094;-1.690;2022-07-23T11:35:35;101543.19;;;30.27;31.45
27613;BME280;15036;48.094;-1.690;2022-07-23T11:38:06;101546.34;;;29.05;33.39
27613;BME280;15036;48.094;-1.690;2022-07-23T11:40:33;101543.13;;;29.86;31.90
27613;BME280;15036;48.094;-1.690;2022-07-23T11:43:07;101536.97;;;30.30;31.20
27613;BME280;15036;48.094;-1.690;2022-07-23T11:45:41;101535.91;;;29.80;31.80
27613;BME280;15036;48.094;-1.690;2022-07-23T11:48:14;101541.72;;;30.16;31.56
27613;BME280;15036;48.094;-1.690;2022-07-23T11:50:40;101529.38;;;30.57;30.82
27613;BME280;15036;48.094;-1.690;2022-07-23T11:53:05;101518.69;;;30.82;30.62
27613;BME280;15036;48.094;-1.690;2022-07-23T11:55:31;101521.38;;;31.14;29.98
27613;BME280;15036;48.094;-1.690;2022-07-23T11:57:57;101525.28;;;31.26;29.51
27613;BME280;15036;48.094;-1.690;2022-07-23T12:00:25;101519.66;;;31.26;29.38
27613;BME280;15036;48.094;-1.690;2022-07-23T12:02:57;101531.72;;;29.77;31.09
27613;BME280;15036;48.094;-1.690;2022-07-23T12:05:34;101524.94;;;30.78;29.67
27613;BME280;15036;48.094;-1.690;2022-07-23T12:08:02;101528.16;;;31.13;29.12
27613;BME280;15036;48.094;-1.690;2022-07-23T12:10:43;101521.78;;;31.87;28.42
27613;BME280;15036;48.094;-1.690;2022-07-23T12:15:50;101512.00;;;32.15;28.14
27613;BME280;15036;48.094;-1.690;2022-07-23T12:18:19;101530.94;;;32.06;27.81
27613;BME280;15036;48.094;-1.690;2022-07-23T12:20:48;101521.56;;;31.97;27.00
27613;BME280;15036;48.094;-1.690;2022-07-23T12:23:15;101514.56;;;31.95;27.29
27613;BME280;15036;48.094;-1.690;2022-07-23T12:25:43;101514.16;;;32.10;27.58
27613;BME280;15036;48.094;-1.690;2022-07-23T12:28:11;101508.06;;;32.56;26.72
27613;BME280;15036;48.094;-1.690;2022-07-23T12:30:43;101507.97;;;32.38;26.28
27613;BME280;15036;48.094;-1.690;2022-07-23T12:33:13;101505.09;;;32.69;25.93
27613;BME280;15036;48.094;-1.690;2022-07-23T12:35:43;101499.53;;;33.20;25.65
27613;BME280;15036;48.094;-1.690;2022-07-23T12:38:13;101491.34;;;33.79;25.18
27613;BME280;15036;48.094;-1.690;2022-07-23T12:45:56;101499.66;;;35.06;22.59
27613;BME280;15036;48.094;-1.690;2022-07-23T12:51:14;101488.13;;;34.52;23.16
27613;BME280;15036;48.094;-1.690;2022-07-23T12:54:07;101494.88;;;33.42;24.57
27613;BME280;15036;48.094;-1.690;2022-07-23T12:56:36;101484.28;;;34.02;24.03
27613;BME280;15036;48.094;-1.690;2022-07-23T13:01:37;101483.97;;;35.20;22.79
27613;BME280;15036;48.094;-1.690;2022-07-23T13:04:04;101479.13;;;35.21;22.79
27613;BME280;15036;48.094;-1.690;2022-07-23T13:06:34;101483.69;;;33.37;24.45
27613;BME280;15036;48.094;-1.690;2022-07-23T13:09:04;101482.63;;;34.76;23.33
27613;BME280;15036;48.094;-1.690;2022-07-23T13:11:30;101475.00;;;35.71;22.20
27613;BME280;15036;48.094;-1.690;2022-07-23T13:13:56;101478.09;;;36.60;20.91
27613;BME280;15036;48.094;-1.690;2022-07-23T13:16:22;101480.28;;;35.94;21.85
27613;BME280;15036;48.094;-1.690;2022-07-23T13:18:47;101477.53;;;36.66;20.92
27613;BME280;15036;48.094;-1.690;2022-07-23T13:21:13;101464.44;;;35.39;22.64
27613;BME280;15036;48.094;-1.690;2022-07-23T13:23:38;101465.56;;;37.12;21.15
27613;BME280;15036;48.094;-1.690;2022-07-23T13:26:04;101461.97;;;37.27;20.67
27613;BME280;15036;48.094;-1.690;2022-07-23T13:28:29;101470.91;;;37.54;20.32
27613;BME280;15036;48.094;-1.690;2022-07-23T13:30:55;101462.25;;;37.50;19.92
27613;BME280;15036;48.094;-1.690;2022-07-23T13:33:23;101457.81;;;37.25;20.61